sensor_id;sensor_type;location;lat;lon;timestamp;pressure;altitude;pressure_sealevel;temperature
76901;BMP280;65859;43.020;25.096;2023-07-20T00:01:30;99193.56;;;25.29
76901;BMP280;65859;43.020;25.096;2023-07-20T00:03:56;99159.19;;;25.09
76901;BMP280;65859;43.020;25.096;2023-07-20T00:06:23;99164.31;;;25.20
76901;BMP280;65859;43.020;25.096;2023-07-20T00:08:51;99165.41;;;25.51
76901;BMP280;65859;43.020;25.096;2023-07-20T00:11:17;99152.59;;;25.23
76901;BMP280;65859;43.020;25.096;2023-07-20T00:13:43;99147.00;;;25.14
76901;BMP280;65859;43.020;25.096;2023-07-20T00:16:10;99134.81;;;25.06
76901;BMP280;65859;43.020;25.096;2023-07-20T00:18:36;99112.53;;;25.11
76901;BMP280;65859;43.020;25.096;2023-07-20T00:21:02;99099.16;;;24.75
76901;BMP280;65859;43.020;25.096;2023-07-20T00:23:29;99091.69;;;24.79
76901;BMP280;65859;43.020;25.096;2023-07-20T00:25:55;99069.53;;;25.09
76901;BMP280;65859;43.020;25.096;2023-07-20T00:28:21;99061.06;;;24.78
76901;BMP280;65859;43.020;25.096;2023-07-20T00:30:49;99049.34;;;24.36
76901;BMP280;65859;43.020;25.096;2023-07-20T00:33:17;99028.13;;;24.47
76901;BMP280;65859;43.020;25.096;2023-07-20T00:35:44;98969.03;;;25.35
76901;BMP280;65859;43.020;25.096;2023-07-20T00:38:10;98826.81;;;25.03
76901;BMP280;65859;43.020;25.096;2023-07-20T00:40:41;98747.13;;;23.34
76901;BMP280;65859;43.020;25.096;2023-07-20T00:43:07;98807.78;;;23.53
76901;BMP280;65859;43.020;25.096;2023-07-20T00:45:35;98837.03;;;24.19
76901;BMP280;65859;43.020;25.096;2023-07-20T00:48:03;98853.91;;;23.98
76901;BMP280;65859;43.020;25.096;2023-07-20T00:50:31;98846.06;;;24.83
76901;BMP280;65859;43.020;25.096;2023-07-20T00:52:58;98855.78;;;25.32
76901;BMP280;65859;43.020;25.096;2023-07-20T00:55:25;98830.53;;;25.09
76901;BMP280;65859;43.020;25.096;2023-07-20T00:57:53;98805.75;;;24.95
76901;BMP280;65859;43.020;25.096;2023-07-20T01:00:20;98805.84;;;24.28
76901;BMP280;65859;43.020;25.096;2023-07-20T01:02:48;98788.75;;;24.02
76901;BMP280;65859;43.020;25.096;2023-07-20T01:05:14;98762.91;;;23.68
76901;BMP280;65859;43.020;25.096;2023-07-20T01:08:06;98752.91;;;23.36
76901;BMP280;65859;43.020;25.096;2023-07-20T01:10:42;98731.19;;;23.07
76901;BMP280;65859;43.020;25.096;2023-07-20T01:13:10;98743.69;;;23.34
76901;BMP280;65859;43.020;25.096;2023-07-20T01:15:40;98765.19;;;23.99
76901;BMP280;65859;43.020;25.096;2023-07-20T01:18:06;98738.56;;;24.35
76901;BMP280;65859;43.020;25.096;2023-07-20T01:20:33;98724.69;;;24.20
76901;BMP280;65859;43.020;25.096;2023-07-20T01:28:39;98725.59;;;23.88
76901;BMP280;65859;43.020;25.096;2023-07-20T01:33:45;98731.28;;;24.57
76901;BMP280;65859;43.020;25.096;2023-07-20T01:36:14;98710.06;;;23.60
76901;BMP280;65859;43.020;25.096;2023-07-20T01:38:42;98705.09;;;23.13
76901;BMP280;65859;43.020;25.096;2023-07-20T01:41:10;98708.59;;;22.98
76901;BMP280;65859;43.020;25.096;2023-07-20T01:43:36;98713.97;;;24.01
76901;BMP280;65859;43.020;25.096;2023-07-20T01:46:02;98711.97;;;24.30
76901;BMP280;65859;43.020;25.096;2023-07-20T01:48:29;98713.22;;;24.89
76901;BMP280;65859;43.020;25.096;2023-07-20T01:50:55;98701.97;;;24.78
76901;BMP280;65859;43.020;25.096;2023-07-20T01:53:22;98716.09;;;24.47
76901;BMP280;65859;43.020;25.096;2023-07-20T01:55:48;98711.47;;;23.93
76901;BMP280;65859;43.020;25.096;2023-07-20T01:58:14;98714.56;;;24.34
76901;BMP280;65859;43.020;25.096;2023-07-20T02:00:41;98725.13;;;23.77
76901;BMP280;65859;43.020;25.096;2023-07-20T02:03:07;98736.88;;;23.42
76901;BMP280;65859;43.020;25.096;2023-07-20T02:05:35;98712.16;;;23.98
76901;BMP280;65859;43.020;25.096;2023-07-20T02:08:01;98720.97;;;24.40
76901;BMP280;65859;43.020;25.096;2023-07-20T02:10:27;98724.75;;;23.63
76901;BMP280;65859;43.020;25.096;2023-07-20T02:12:54;98730.09;;;24.20
76901;BMP280;65859;43.020;25.096;2023-07-20T02:15:20;98721.06;;;23.98
76901;BMP280;65859;43.020;25.096;2023-07-20T02:17:47;98705.88;;;24.26
76901;BMP280;65859;43.020;25.096;2023-07-20T02:20:14;98720.53;;;24.41
76901;BMP280;65859;43.020;25.096;2023-07-20T02:22:40;98717.38;;;24.81
76901;BMP280;65859;43.020;25.096;2023-07-20T02:25:07;98710.38;;;24.92
76901;BMP280;65859;43.020;25.096;2023-07-20T02:27:34;98695.69;;;24.43
76901;BMP280;65859;43.020;25.096;2023-07-20T02:30:01;98704.69;;;24.65
76901;BMP280;65859;43.020;25.096;2023-07-20T02:32:28;98703.78;;;24.05
76901;BMP280;65859;43.020;25.096;2023-07-20T02:34:55;98705.66;;;23.95
76901;BMP280;65859;43.020;25.096;2023-07-20T02:37:23;98705.66;;;22.92
76901;BMP280;65859;43.020;25.096;2023-07-20T02:39:49;98723.72;;;22.07
76901;BMP280;65859;43.020;25.096;2023-07-20T02:42:16;98719.72;;;22.15
76901;BMP280;65859;43.020;25.096;2023-07-20T02:44:42;98723.72;;;22.26
76901;BMP280;65859;43.020;25.096;2023-07-20T02:47:08;98724.41;;;22.11
76901;BMP280;65859;43.020;25.096;2023-07-20T02:49:35;98728.09;;;22.20
76901;BMP280;65859;43.020;25.096;2023-07-20T02:52:01;98717.66;;;21.83
76901;BMP280;65859;43.020;25.096;2023-07-20T02:54:28;98715.34;;;21.81
76901;BMP280;65859;43.020;25.096;2023-07-20T02:56:56;98722.00;;;21.96
76901;BMP280;65859;43.020;25.096;2023-07-20T02:59:22;98719.09;;;22.43
76901;BMP280;65859;43.020;25.096;2023-07-20T03:01:48;98731.09;;;22.26
76901;BMP280;65859;43.020;25.096;2023-07-20T03:04:15;98730.84;;;23.05
76901;BMP280;65859;43.020;25.096;2023-07-20T03:06:42;98729.56;;;23.26
76901;BMP280;65859;43.020;25.096;2023-07-20T03:09:10;98732.41;;;23.51
76901;BMP280;65859;43.020;25.096;2023-07-20T03:11:36;98738.19;;;23.05
76901;BMP280;65859;43.020;25.096;2023-07-20T03:14:02;98745.31;;;23.60
76901;BMP280;65859;43.020;25.096;2023-07-20T03:16:29;98741.59;;;23.83
76901;BMP280;65859;43.020;25.096;2023-07-20T03:18:59;98736.97;;;23.38
76901;BMP280;65859;43.020;25.096;2023-07-20T03:21:26;98736.56;;;23.40
76901;BMP280;65859;43.020;25.096;2023-07-20T03:23:53;98729.13;;;23.73
76901;BMP280;65859;43.020;25.096;2023-07-20T03:26:20;98742.59;;;23.60
76901;BMP280;65859;43.020;25.096;2023-07-20T03:28:46;98746.81;;;23.77
76901;BMP280;65859;43.020;25.096;2023-07-20T03:31:12;98749.44;;;23.93
76901;BMP280;65859;43.020;25.096;2023-07-20T03:33:41;98750.31;;;23.90
76901;BMP280;65859;43.020;25.096;2023-07-20T03:36:07;98758.53;;;23.87
76901;BMP280;65859;43.020;25.096;2023-07-20T03:38:33;98764.09;;;23.22
76901;BMP280;65859;43.020;25.096;2023-07-20T03:41:01;98760.50;;;23.41
76901;BMP280;65859;43.020;25.096;2023-07-20T03:43:28;98785.34;;;23.07
76901;BMP280;65859;43.020;25.096;2023-07-20T03:45:54;98777.84;;;23.27
76901;BMP280;65859;43.020;25.096;2023-07-20T03:48:23;98780.50;;;23.47
76901;BMP280;65859;43.020;25.096;2023-07-20T03:50:51;98785.59;;;23.74
76901;BMP280;65859;43.020;25.096;2023-07-20T03:53:18;98787.84;;;24.05
76901;BMP280;65859;43.020;25.096;2023-07-20T03:55:51;98784.75;;;24.19
76901;BMP280;65859;43.020;25.096;2023-07-20T03:58:18;98783.56;;;24.20
76901;BMP280;65859;43.020;25.096;2023-07-20T04:00:49;98788.16;;;23.65
76901;BMP280;65859;43.020;25.096;2023-07-20T04:03:19;98784.47;;;24.01
76901;BMP280;65859;43.020;25.096;2023-07-20T04:05:46;98777.72;;;23.80
76901;BMP280;65859;43.020;25.096;2023-07-20T04:08:12;98780.91;;;22.81
76901;BMP280;65859;43.020;25.096;2023-07-20T04:10:39;98781.03;;;22.57
76901;BMP280;65859;43.020;25.096;2023-07-20T04:13:10;98775.06;;;22.82
76901;BMP280;65859;43.020;25.096;2023-07-20T04:15:36;98776.44;;;23.39
76901;BMP280;65859;43.020;25.096;2023-07-20T04:18:02;98778.75;;;24.11
76901;BMP280;65859;43.020;25.096;2023-07-20T04:20:29;98768.09;;;23.63
76901;BMP280;65859;43.020;25.096;2023-07-20T04:22:55;98772.75;;;23.62
76901;BMP280;65859;43.020;25.096;2023-07-20T04:25:21;98773.91;;;23.00
76901;BMP280;65859;43.020;25.096;2023-07-20T04:27:47;98778.72;;;22.92
76901;BMP280;65859;43.020;25.096;2023-07-20T04:30:16;98780.59;;;22.59
76901;BMP280;65859;43.020;25.096;2023-07-20T04:32:45;98783.59;;;22.25
76901;BMP280;65859;43.020;25.096;2023-07-20T04:35:44;98781.66;;;22.06
76901;BMP280;65859;43.020;25.096;2023-07-20T04:38:03;98782.22;;;22.17
76901;BMP280;65859;43.020;25.096;2023-07-20T04:40:30;98787.13;;;22.61
76901;BMP280;65859;43.020;25.096;2023-07-20T04:42:56;98788.13;;;22.68
76901;BMP280;65859;43.020;25.096;2023-07-20T04:45:23;98775.50;;;22.81
76901;BMP280;65859;43.020;25.096;2023-07-20T04:47:50;98780.91;;;22.81
76901;BMP280;65859;43.020;25.096;2023-07-20T04:50:17;98784.94;;;22.73
76901;BMP280;65859;43.020;25.096;2023-07-20T04:52:43;98787.19;;;22.58
76901;BMP280;65859;43.020;25.096;2023-07-20T04:55:12;98789.28;;;22.50
76901;BMP280;65859;43.020;25.096;2023-07-20T04:57:38;98788.91;;;22.68
76901;BMP280;65859;43.020;25.096;2023-07-20T05:00:05;98774.38;;;22.78
76901;BMP280;65859;43.020;25.096;2023-07-20T05:02:32;98792.03;;;23.03
76901;BMP280;65859;43.020;25.096;2023-07-20T05:04:58;98779.03;;;23.26
76901;BMP280;65859;43.020;25.096;2023-07-20T05:07:24;98779.53;;;23.38
76901;BMP280;65859;43.020;25.096;2023-07-20T05:09:51;98779.41;;;23.45
76901;BMP280;65859;43.020;25.096;2023-07-20T05:12:17;98783.31;;;23.56
76901;BMP280;65859;43.020;25.096;2023-07-20T05:14:44;98773.72;;;23.68
76901;BMP280;65859;43.020;25.096;2023-07-20T05:17:12;98766.78;;;23.67
76901;BMP280;65859;43.020;25.096;2023-07-20T05:19:38;98778.09;;;23.95
76901;BMP280;65859;43.020;25.096;2023-07-20T05:22:08;98765.41;;;24.04
76901;BMP280;65859;43.020;25.096;2023-07-20T05:24:35;98762.94;;;24.10
76901;BMP280;65859;43.020;25.096;2023-07-20T05:27:02;98762.69;;;23.63
76901;BMP280;65859;43.020;25.096;2023-07-20T05:29:29;98759.69;;;23.73
76901;BMP280;65859;43.020;25.096;2023-07-20T05:31:55;98752.03;;;23.84
76901;BMP280;65859;43.020;25.096;2023-07-20T05:34:22;98746.25;;;24.24
76901;BMP280;65859;43.020;25.096;2023-07-20T05:36:48;98751.03;;;24.83
76901;BMP280;65859;43.020;25.096;2023-07-20T05:39:16;98760.53;;;25.13
76901;BMP280;65859;43.020;25.096;2023-07-20T05:41:45;98759.66;;;25.16
76901;BMP280;65859;43.020;25.096;2023-07-20T05:44:12;98760.38;;;25.95
76901;BMP280;65859;43.020;25.096;2023-07-20T05:46:39;98755.84;;;26.54
76901;BMP280;65859;43.020;25.096;2023-07-20T05:49:06;98748.91;;;26.71
76901;BMP280;65859;43.020;25.096;2023-07-20T05:51:32;98747.47;;;26.08
76901;BMP280;65859;43.020;25.096;2023-07-20T05:53:59;98745.47;;;26.80
76901;BMP280;65859;43.020;25.096;2023-07-20T05:56:25;98744.38;;;26.28
76901;BMP280;65859;43.020;25.096;2023-07-20T05:58:54;98750.44;;;26.63
76901;BMP280;65859;43.020;25.096;2023-07-20T06:01:21;98746.34;;;26.28
76901;BMP280;65859;43.020;25.096;2023-07-20T06:03:48;98742.06;;;25.43
76901;BMP280;65859;43.020;25.096;2023-07-20T06:06:14;98745.44;;;26.21
76901;BMP280;65859;43.020;25.096;2023-07-20T06:08:44;98747.19;;;26.46
76901;BMP280;65859;43.020;25.096;2023-07-20T06:11:10;98742.91;;;26.85
76901;BMP280;65859;43.020;25.096;2023-07-20T06:13:37;98739.31;;;26.08
76901;BMP280;65859;43.020;25.096;2023-07-20T06:16:03;98739.69;;;25.88
76901;BMP280;65859;43.020;25.096;2023-07-20T06:18:30;98745.03;;;27.00
76901;BMP280;65859;43.020;25.096;2023-07-20T06:20:59;98738.97;;;27.41
76901;BMP280;65859;43.020;25.096;2023-07-20T06:23:25;98738.25;;;26.46
76901;BMP280;65859;43.020;25.096;2023-07-20T06:25:51;98740.31;;;26.82
76901;BMP280;65859;43.020;25.096;2023-07-20T06:28:18;98738.53;;;26.88
76901;BMP280;65859;43.020;25.096;2023-07-20T06:30:47;98738.22;;;27.04
76901;BMP280;65859;43.020;25.096;2023-07-20T06:33:13;98737.94;;;27.39
76901;BMP280;65859;43.020;25.096;2023-07-20T06:35:42;98737.59;;;27.64
76901;BMP280;65859;43.020;25.096;2023-07-20T06:38:11;98740.59;;;27.66
76901;BMP280;65859;43.020;25.096;2023-07-20T06:40:41;98738.69;;;28.09
76901;BMP280;65859;43.020;25.096;2023-07-20T06:43:07;98736.97;;;28.20
76901;BMP280;65859;43.020;25.096;2023-07-20T06:45:33;98732.50;;;27.99
76901;BMP280;65859;43.020;25.096;2023-07-20T06:48:00;98739.59;;;28.39
76901;BMP280;65859;43.020;25.096;2023-07-20T06:50:26;98747.66;;;28.33
76901;BMP280;65859;43.020;25.096;2023-07-20T06:52:54;98754.59;;;28.91
76901;BMP280;65859;43.020;25.096;2023-07-20T06:55:20;98751.53;;;29.13
76901;BMP280;65859;43.020;25.096;2023-07-20T06:57:47;98761.16;;;29.08
76901;BMP280;65859;43.020;25.096;2023-07-20T07:00:14;98753.16;;;29.19
76901;BMP280;65859;43.020;25.096;2023-07-20T07:02:40;98759.16;;;29.62
76901;BMP280;65859;43.020;25.096;2023-07-20T07:05:07;98755.31;;;29.74
76901;BMP280;65859;43.020;25.096;2023-07-20T07:07:33;98758.06;;;29.74
76901;BMP280;65859;43.020;25.096;2023-07-20T07:10:00;98755.66;;;29.76
76901;BMP280;65859;43.020;25.096;2023-07-20T07:12:27;98754.75;;;29.99
76901;BMP280;65859;43.020;25.096;2023-07-20T07:14:53;98763.84;;;29.91
76901;BMP280;65859;43.020;25.096;2023-07-20T07:17:20;98756.41;;;30.12
76901;BMP280;65859;43.020;25.096;2023-07-20T07:19:46;98758.66;;;30.28
76901;BMP280;65859;43.020;25.096;2023-07-20T07:22:12;98763.25;;;30.36
76901;BMP280;65859;43.020;25.096;2023-07-20T07:24:41;98764.00;;;30.02
76901;BMP280;65859;43.020;25.096;2023-07-20T07:27:09;98761.88;;;30.47
76901;BMP280;65859;43.020;25.096;2023-07-20T07:29:35;98766.22;;;30.53
76901;BMP280;65859;43.020;25.096;2023-07-20T07:32:01;98768.91;;;30.33
76901;BMP280;65859;43.020;25.096;2023-07-20T07:34:28;98767.63;;;30.49
76901;BMP280;65859;43.020;25.096;2023-07-20T07:36:54;98770.41;;;30.34
76901;BMP280;65859;43.020;25.096;2023-07-20T07:39:21;98772.38;;;30.48
76901;BMP280;65859;43.020;25.096;2023-07-20T07:41:47;98777.41;;;30.96
76901;BMP280;65859;43.020;25.096;2023-07-20T07:44:14;98772.50;;;31.26
76901;BMP280;65859;43.020;25.096;2023-07-20T07:46:40;98775.56;;;30.47
76901;BMP280;65859;43.020;25.096;2023-07-20T07:49:07;98782.38;;;30.51
76901;BMP280;65859;43.020;25.096;2023-07-20T07:51:34;98783.19;;;30.98
76901;BMP280;65859;43.020;25.096;2023-07-20T07:54:00;98779.41;;;31.16
76901;BMP280;65859;43.020;25.096;2023-07-20T07:56:28;98784.44;;;31.48
76901;BMP280;65859;43.020;25.096;2023-07-20T07:58:54;98784.81;;;31.36
76901;BMP280;65859;43.020;25.096;2023-07-20T08:01:20;98784.28;;;31.32
76901;BMP280;65859;43.020;25.096;2023-07-20T08:03:46;98793.69;;;31.51
76901;BMP280;65859;43.020;25.096;2023-07-20T08:06:14;98779.78;;;31.60
76901;BMP280;65859;43.020;25.096;2023-07-20T08:08:41;98801.66;;;31.80
76901;BMP280;65859;43.020;25.096;2023-07-20T08:11:08;98786.34;;;31.68
76901;BMP280;65859;43.020;25.096;2023-07-20T08:13:35;98783.66;;;31.74
76901;BMP280;65859;43.020;25.096;2023-07-20T08:16:03;98789.97;;;31.85
76901;BMP280;65859;43.020;25.096;2023-07-20T08:18:29;98793.81;;;31.99
76901;BMP280;65859;43.020;25.096;2023-07-20T08:20:55;98793.31;;;32.38
76901;BMP280;65859;43.020;25.096;2023-07-20T08:23:22;98798.00;;;32.32
76901;BMP280;65859;43.020;25.096;2023-07-20T08:25:48;98792.81;;;32.45
76901;BMP280;65859;43.020;25.096;2023-07-20T08:28:16;98795.44;;;32.17
76901;BMP280;65859;43.020;25.096;2023-07-20T08:30:47;98794.78;;;31.96
76901;BMP280;65859;43.020;25.096;2023-07-20T08:33:14;98806.16;;;32.20
76901;BMP280;65859;43.020;25.096;2023-07-20T08:35:42;98815.03;;;32.36
76901;BMP280;65859;43.020;25.096;2023-07-20T08:38:09;98819.16;;;32.14
76901;BMP280;65859;43.020;25.096;2023-07-20T08:40:44;98820.56;;;32.47
76901;BMP280;65859;43.020;25.096;2023-07-20T08:43:14;98829.53;;;32.42
76901;BMP280;65859;43.020;25.096;2023-07-20T08:45:45;98825.72;;;32.76
76901;BMP280;65859;43.020;25.096;2023-07-20T08:48:13;98844.22;;;32.81
76901;BMP280;65859;43.020;25.096;2023-07-20T08:50:39;98848.06;;;32.52
76901;BMP280;65859;43.020;25.096;2023-07-20T08:53:07;98856.09;;;32.56
76901;BMP280;65859;43.020;25.096;2023-07-20T08:55:34;98863.50;;;32.87
76901;BMP280;65859;43.020;25.096;2023-07-20T08:58:01;98855.69;;;32.74
76901;BMP280;65859;43.020;25.096;2023-07-20T09:00:30;98854.00;;;32.93
76901;BMP280;65859;43.020;25.096;2023-07-20T09:02:58;98846.88;;;33.35
76901;BMP280;65859;43.020;25.096;2023-07-20T09:05:26;98836.84;;;33.10
76901;BMP280;65859;43.020;25.096;2023-07-20T09:07:53;98853.06;;;32.48
76901;BMP280;65859;43.020;25.096;2023-07-20T09:10:23;98845.28;;;32.04
76901;BMP280;65859;43.020;25.096;2023-07-20T09:12:50;98829.50;;;32.36
76901;BMP280;65859;43.020;25.096;2023-07-20T09:15:16;98829.16;;;32.71
76901;BMP280;65859;43.020;25.096;2023-07-20T09:17:47;98846.72;;;32.79
76901;BMP280;65859;43.020;25.096;2023-07-20T09:20:16;98842.78;;;32.91
76901;BMP280;65859;43.020;25.096;2023-07-20T09:22:43;98840.81;;;32.49
76901;BMP280;65859;43.020;25.096;2023-07-20T09:25:12;98824.09;;;33.12
76901;BMP280;65859;43.020;25.096;2023-07-20T09:27:43;98801.84;;;33.38
76901;BMP280;65859;43.020;25.096;2023-07-20T09:30:10;98794.31;;;33.16
76901;BMP280;65859;43.020;25.096;2023-07-20T09:32:45;98788.56;;;33.09
76901;BMP280;65859;43.020;25.096;2023-07-20T09:35:15;98783.56;;;33.80
76901;BMP280;65859;43.020;25.096;2023-07-20T09:37:46;98792.81;;;33.21
76901;BMP280;65859;43.020;25.096;2023-07-20T09:40:15;98787.81;;;33.25
76901;BMP280;65859;43.020;25.096;2023-07-20T09:42:43;98798.84;;;33.47
76901;BMP280;65859;43.020;25.096;2023-07-20T09:45:13;98806.81;;;33.06
76901;BMP280;65859;43.020;25.096;2023-07-20T09:47:39;98802.03;;;32.95
76901;BMP280;65859;43.020;25.096;2023-07-20T09:50:07;98794.59;;;33.35
76901;BMP280;65859;43.020;25.096;2023-07-20T09:52:43;98806.34;;;33.47
76901;BMP280;65859;43.020;25.096;2023-07-20T09:55:12;98816.84;;;33.37
76901;BMP280;65859;43.020;25.096;2023-07-20T09:57:39;98813.19;;;32.75
76901;BMP280;65859;43.020;25.096;2023-07-20T10:00:07;98789.56;;;33.17
76901;BMP280;65859;43.020;25.096;2023-07-20T10:02:43;98792.03;;;33.04
76901;BMP280;65859;43.020;25.096;2023-07-20T10:05:13;98788.56;;;33.31
76901;BMP280;65859;43.020;25.096;2023-07-20T10:07:48;98793.59;;;33.27
76901;BMP280;65859;43.020;25.096;2023-07-20T10:10:16;98783.81;;;33.20
76901;BMP280;65859;43.020;25.096;2023-07-20T10:12:49;98785.50;;;33.01
76901;BMP280;65859;43.020;25.096;2023-07-20T10:15:29;98787.84;;;33.42
76901;BMP280;65859;43.020;25.096;2023-07-20T10:18:30;98780.81;;;33.29
76901;BMP280;65859;43.020;25.096;2023-07-20T10:20:59;98782.31;;;33.36
76901;BMP280;65859;43.020;25.096;2023-07-20T10:23:29;98779.53;;;33.19
76901;BMP280;65859;43.020;25.096;2023-07-20T10:25:57;98767.56;;;33.56
76901;BMP280;65859;43.020;25.096;2023-07-20T10:28:25;98764.56;;;33.31
76901;BMP280;65859;43.020;25.096;2023-07-20T10:30:53;98764.81;;;33.28
76901;BMP280;65859;43.020;25.096;2023-07-20T10:33:20;98765.06;;;33.24
76901;BMP280;65859;43.020;25.096;2023-07-20T10:36:02;98768.31;;;33.67
76901;BMP280;65859;43.020;25.096;2023-07-20T10:41:35;98765.31;;;33.32
76901;BMP280;65859;43.020;25.096;2023-07-20T10:44:08;98768.31;;;33.23
76901;BMP280;65859;43.020;25.096;2023-07-20T10:46:42;98774.56;;;33.34
76901;BMP280;65859;43.020;25.096;2023-07-20T10:49:11;98764.50;;;32.92
76901;BMP280;65859;43.020;25.096;2023-07-20T10:51:47;98758.00;;;33.01
76901;BMP280;65859;43.020;25.096;2023-07-20T10:56:46;98748.78;;;33.21
76901;BMP280;65859;43.020;25.096;2023-07-20T11:02:06;98744.03;;;33.05
76901;BMP280;65859;43.020;25.096;2023-07-20T11:04:43;98742.03;;;32.94
76901;BMP280;65859;43.020;25.096;2023-07-20T11:07:16;98741.03;;;32.91
76901;BMP280;65859;43.020;25.096;2023-07-20T11:09:44;98746.53;;;33.14
76901;BMP280;65859;43.020;25.096;2023-07-20T11:12:15;98747.75;;;32.96
76901;BMP280;65859;43.020;25.096;2023-07-20T11:14:43;98737.97;;;32.89
76901;BMP280;65859;43.020;25.096;2023-07-20T11:17:19;98722.00;;;32.88
76901;BMP280;65859;43.020;25.096;2023-07-20T11:19:56;98714.25;;;32.97
76901;BMP280;65859;43.020;25.096;2023-07-20T11:22:23;98720.41;;;32.53
76901;BMP280;65859;43.020;25.096;2023-07-20T11:24:50;98721.41;;;32.56
76901;BMP280;65859;43.020;25.096;2023-07-20T11:27:16;98715.03;;;32.98
76901;BMP280;65859;43.020;25.096;2023-07-20T11:29:48;98704.00;;;33.26
76901;BMP280;65859;43.020;25.096;2023-07-20T11:32:23;98714.75;;;32.90
76901;BMP280;65859;43.020;25.096;2023-07-20T11:34:50;98707.50;;;33.04
76901;BMP280;65859;43.020;25.096;2023-07-20T11:37:18;98698.00;;;33.38
76901;BMP280;65859;43.020;25.096;2023-07-20T11:39:45;98688.75;;;32.91
76901;BMP280;65859;43.020;25.096;2023-07-20T11:42:12;98683.50;;;33.05
76901;BMP280;65859;43.020;25.096;2023-07-20T11:44:38;98676.25;;;33.46
76901;BMP280;65859;43.020;25.096;2023-07-20T11:47:09;98668.47;;;33.33
76901;BMP280;65859;43.020;25.096;2023-07-20T11:49:43;98657.69;;;33.41
76901;BMP280;65859;43.020;25.096;2023-07-20T11:52:17;98650.25;;;33.25
76901;BMP280;65859;43.020;25.096;2023-07-20T11:54:44;98631.47;;;33.18
76901;BMP280;65859;43.020;25.096;2023-07-20T11:57:18;98613.25;;;32.59
76901;BMP280;65859;43.020;25.096;2023-07-20T12:00:04;98612.97;;;33.18
76901;BMP280;65859;43.020;25.096;2023-07-20T12:02:35;98615.69;;;31.33
76901;BMP280;65859;43.020;25.096;2023-07-20T12:05:03;98606.19;;;31.65
76901;BMP280;65859;43.020;25.096;2023-07-20T12:07:37;98606.88;;;31.55
76901;BMP280;65859;43.020;25.096;2023-07-20T12:10:06;98609.88;;;31.57
76901;BMP280;65859;43.020;25.096;2023-07-20T12:12:34;98615.56;;;30.13
76901;BMP280;65859;43.020;25.096;2023-07-20T12:17:49;98615.06;;;29.94
76901;BMP280;65859;43.020;25.096;2023-07-20T12:20:36;98605.91;;;29.77
76901;BMP280;65859;43.020;25.096;2023-07-20T12:23:13;98615.44;;;29.66
76901;BMP280;65859;43.020;25.096;2023-07-20T12:25:41;98613.84;;;30.61
76901;BMP280;65859;43.020;25.096;2023-07-20T12:28:19;98605.09;;;30.57
76901;BMP280;65859;43.020;25.096;2023-07-20T12:30:47;98606.59;;;30.58
76901;BMP280;65859;43.020;25.096;2023-07-20T12:33:33;98605.53;;;30.50
76901;BMP280;65859;43.020;25.096;2023-07-20T12:36:00;98598.25;;;30.99
76901;BMP280;65859;43.020;25.096;2023-07-20T12:38:28;98600.03;;;31.02
76901;BMP280;65859;43.020;25.096;2023-07-20T12:40:57;98590.91;;;30.59
76901;BMP280;65859;43.020;25.096;2023-07-20T12:43:24;98597.16;;;30.59
76901;BMP280;65859;43.020;25.096;2023-07-20T12:45:51;98607.13;;;30.88
76901;BMP280;65859;43.020;25.096;2023-07-20T12:48:18;98598.06;;;31.99
76901;BMP280;65859;43.020;25.096;2023-07-20T12:50:44;98592.47;;;31.23
76901;BMP280;65859;43.020;25.096;2023-07-20T12:53:10;98590.63;;;31.51
76901;BMP280;65859;43.020;25.096;2023-07-20T12:55:38;98579.72;;;31.20
76901;BMP280;65859;43.020;25.096;2023-07-20T12:58:05;98584.31;;;30.45
76901;BMP280;65859;43.020;25.096;2023-07-20T13:00:31;98575.03;;;31.74
76901;BMP280;65859;43.020;25.096;2023-07-20T13:02:58;98585.69;;;30.87
76901;BMP280;65859;43.020;25.096;2023-07-20T13:05:24;98573.34;;;30.45
76901;BMP280;65859;43.020;25.096;2023-07-20T13:07:50;98565.19;;;30.04
76901;BMP280;65859;43.020;25.096;2023-07-20T13:10:18;98572.69;;;29.89
76901;BMP280;65859;43.020;25.096;2023-07-20T13:12:45;98563.53;;;29.72
76901;BMP280;65859;43.020;25.096;2023-07-20T13:15:12;98567.91;;;30.25
76901;BMP280;65859;43.020;25.096;2023-07-20T13:17:39;98564.34;;;30.96
76901;BMP280;65859;43.020;25.096;2023-07-20T13:20:07;98561.13;;;30.20
76901;BMP280;65859;43.020;25.096;2023-07-20T13:22:37;98558.75;;;30.28
76901;BMP280;65859;43.020;25.096;2023-07-20T13:25:07;98566.22;;;30.07
76901;BMP280;65859;43.020;25.096;2023-07-20T13:27:35;98555.13;;;30.94
76901;BMP280;65859;43.020;25.096;2023-07-20T13:30:03;98545.69;;;32.13
76901;BMP280;65859;43.020;25.096;2023-07-20T13:32:33;98551.25;;;32.24
76901;BMP280;65859;43.020;25.096;2023-07-20T13:35:00;98547.00;;;32.35
76901;BMP280;65859;43.020;25.096;2023-07-20T13:37:26;98542.50;;;32.37
76901;BMP280;65859;43.020;25.096;2023-07-20T13:39:53;98541.78;;;32.59
76901;BMP280;65859;43.020;25.096;2023-07-20T13:42:20;98531.78;;;32.61
76901;BMP280;65859;43.020;25.096;2023-07-20T13:44:48;98537.25;;;32.45
76901;BMP280;65859;43.020;25.096;2023-07-20T13:47:15;98533.28;;;32.46
76901;BMP280;65859;43.020;25.096;2023-07-20T13:49:41;98549.00;;;32.40
76901;BMP280;65859;43.020;25.096;2023-07-20T13:52:11;98538.75;;;32.35
76901;BMP280;65859;43.020;25.096;2023-07-20T13:54:38;98543.50;;;32.40
76901;BMP280;65859;43.020;25.096;2023-07-20T13:57:07;98543.50;;;32.45
76901;BMP280;65859;43.020;25.096;2023-07-20T13:59:34;98545.25;;;32.37
76901;BMP280;65859;43.020;25.096;2023-07-20T14:02:00;98537.00;;;32.26
76901;BMP280;65859;43.020;25.096;2023-07-20T14:04:27;98542.53;;;32.48
76901;BMP280;65859;43.020;25.096;2023-07-20T14:06:53;98535.50;;;32.36
76901;BMP280;65859;43.020;25.096;2023-07-20T14:09:20;98537.03;;;32.48
76901;BMP280;65859;43.020;25.096;2023-07-20T14:11:46;98544.25;;;32.46
76901;BMP280;65859;43.020;25.096;2023-07-20T14:14:14;98540.25;;;32.47
76901;BMP280;65859;43.020;25.096;2023-07-20T14:16:41;98536.28;;;32.48
76901;BMP280;65859;43.020;25.096;2023-07-20T14:19:07;98535.03;;;32.49
76901;BMP280;65859;43.020;25.096;2023-07-20T14:21:37;98546.50;;;32.64